SIA298 NZCH-WSSS
Flight info
| Callsign | SIA298 |
|---|---|
| Flight time | N/A |
| Altitude | 38000 |
| Route | VANDA N750 PLUGA M636 TESAT A576 MACLA/N0480F400 A576 ATMAP M635 SURGA |
| Aircraft | A359/H-SDE1E2E3GHIJ1J2J3J5M1P2RWXYZ/LB1D1 |
Departure
| Time | 2026-04-27 10:39 |
|---|---|
| Airport | Christchurch International Airport (NZCH) |
Arrival
| Time | N/A |
|---|---|
| Airport | Singapore Changi Airport (WSSS) |
| Time | Latitude | Longitude | Altitude | Speed | Heading |
|---|---|---|---|---|---|
| 2026-04-27 09:52 | -43.48665 | 172.54147 | 111 ft | 0 kts | 226° |
| 2026-04-27 10:30 | -43.48658 | 172.54157 | 114 ft | 4 kts | 227° |
| 2026-04-27 10:31 | -43.48641 | 172.54185 | 113 ft | 4 kts | 236° |
| 2026-04-27 10:31 | -43.48628 | 172.54217 | 112 ft | 4 kts | 250° |
| 2026-04-27 10:31 | -43.48623 | 172.54252 | 114 ft | 4 kts | 283° |
| 2026-04-27 10:31 | -43.48628 | 172.54270 | 114 ft | 2 kts | 310° |
| 2026-04-27 10:34 | -43.48618 | 172.54254 | 114 ft | 5 kts | 310° |
| 2026-04-27 10:34 | -43.48582 | 172.54193 | 112 ft | 11 kts | 310° |
| 2026-04-27 10:34 | -43.48521 | 172.54088 | 110 ft | 16 kts | 301° |
| 2026-04-27 10:34 | -43.48552 | 172.53941 | 112 ft | 19 kts | 223° |
| 2026-04-27 10:35 | -43.48661 | 172.53813 | 114 ft | 23 kts | 220° |
| 2026-04-27 10:35 | -43.48792 | 172.53662 | 111 ft | 26 kts | 220° |
| 2026-04-27 10:35 | -43.48934 | 172.53507 | 113 ft | 25 kts | 214° |
| 2026-04-27 10:35 | -43.49061 | 172.53368 | 114 ft | 23 kts | 220° |
| 2026-04-27 10:36 | -43.49175 | 172.53234 | 117 ft | 21 kts | 220° |
| 2026-04-27 10:36 | -43.49284 | 172.53109 | 123 ft | 19 kts | 219° |
| 2026-04-27 10:36 | -43.49380 | 172.52999 | 126 ft | 17 kts | 219° |
| 2026-04-27 10:36 | -43.49470 | 172.52896 | 127 ft | 16 kts | 220° |
| 2026-04-27 10:37 | -43.49555 | 172.52797 | 133 ft | 17 kts | 220° |
| 2026-04-27 10:37 | -43.49652 | 172.52684 | 125 ft | 19 kts | 220° |
| 2026-04-27 10:37 | -43.49753 | 172.52566 | 128 ft | 19 kts | 220° |
| 2026-04-27 10:37 | -43.49793 | 172.52403 | 132 ft | 19 kts | 273° |
| 2026-04-27 10:38 | -43.49753 | 172.52252 | 124 ft | 13 kts | 349° |
| 2026-04-27 10:38 | -43.49692 | 172.52294 | 130 ft | 0 kts | 39° |
| 2026-04-27 10:38 | -43.49666 | 172.52322 | 125 ft | 23 kts | 39° |
| 2026-04-27 10:38 | -43.49368 | 172.52667 | 125 ft | 86 kts | 40° |
| 2026-04-27 10:39 | -43.48760 | 172.53370 | 116 ft | 140 kts | 40° |
| 2026-04-27 10:39 | -43.47934 | 172.54350 | 418 ft | 155 kts | 41° |
| 2026-04-27 10:39 | -43.47066 | 172.55221 | 980 ft | 158 kts | 30° |
| 2026-04-27 10:39 | -43.46080 | 172.55921 | 1364 ft | 168 kts | 27° |
| 2026-04-27 10:40 | -43.44970 | 172.56645 | 1554 ft | 185 kts | 26° |
| 2026-04-27 10:40 | -43.43744 | 172.57421 | 1738 ft | 203 kts | 25° |
| 2026-04-27 10:40 | -43.42387 | 172.58273 | 1886 ft | 225 kts | 25° |
| 2026-04-27 10:40 | -43.40878 | 172.59140 | 2115 ft | 244 kts | 17° |
| 2026-04-27 10:41 | -43.39164 | 172.59292 | 2494 ft | 253 kts | 348° |
| 2026-04-27 10:41 | -43.37570 | 172.58296 | 3013 ft | 255 kts | 318° |
| 2026-04-27 10:41 | -43.36491 | 172.56381 | 3619 ft | 255 kts | 301° |
| 2026-04-27 10:41 | -43.35593 | 172.54254 | 4146 ft | 259 kts | 298° |
| 2026-04-27 10:42 | -43.34713 | 172.52078 | 4667 ft | 262 kts | 298° |
| 2026-04-27 10:42 | -43.33831 | 172.49887 | 5191 ft | 266 kts | 297° |
| 2026-04-27 10:42 | -43.32929 | 172.47646 | 5743 ft | 269 kts | 297° |
| 2026-04-27 10:42 | -43.32015 | 172.45386 | 6288 ft | 272 kts | 297° |
| 2026-04-27 10:43 | -43.31090 | 172.43104 | 6842 ft | 275 kts | 296° |
| 2026-04-27 10:43 | -43.30154 | 172.40795 | 7393 ft | 277 kts | 296° |
| 2026-04-27 10:43 | -43.29221 | 172.38494 | 7923 ft | 280 kts | 296° |
| 2026-04-27 10:43 | -43.28268 | 172.36149 | 8437 ft | 282 kts | 296° |
| 2026-04-27 10:44 | -43.27251 | 172.33811 | 8941 ft | 287 kts | 301° |
| 2026-04-27 10:44 | -43.26054 | 172.31583 | 9475 ft | 291 kts | 304° |
| 2026-04-27 10:44 | -43.24810 | 172.29385 | 10040 ft | 292 kts | 304° |
| 2026-04-27 10:44 | -43.23544 | 172.27154 | 10388 ft | 302 kts | 304° |
| 2026-04-27 10:45 | -43.22243 | 172.24854 | 10607 ft | 316 kts | 304° |
| 2026-04-27 10:45 | -43.20866 | 172.22416 | 10851 ft | 329 kts | 304° |
| 2026-04-27 10:45 | -43.19435 | 172.19886 | 11069 ft | 342 kts | 304° |
| 2026-04-27 10:45 | -43.17947 | 172.17257 | 11276 ft | 354 kts | 304° |
| 2026-04-27 10:46 | -43.16410 | 172.14545 | 11495 ft | 366 kts | 304° |
| 2026-04-27 10:46 | -43.14834 | 172.11774 | 11852 ft | 371 kts | 304° |
| 2026-04-27 10:46 | -43.13255 | 172.09001 | 12341 ft | 373 kts | 304° |
| 2026-04-27 10:46 | -43.11649 | 172.06188 | 12819 ft | 375 kts | 304° |
| 2026-04-27 10:47 | -43.10035 | 172.03349 | 13188 ft | 378 kts | 304° |
| 2026-04-27 10:47 | -43.08409 | 172.00501 | 13542 ft | 381 kts | 304° |
| 2026-04-27 10:47 | -43.06771 | 171.97650 | 14009 ft | 381 kts | 304° |
| 2026-04-27 10:47 | -43.05137 | 171.94784 | 14430 ft | 383 kts | 304° |
| 2026-04-27 10:48 | -43.03519 | 171.91942 | 14870 ft | 385 kts | 304° |
| 2026-04-27 10:48 | -43.01867 | 171.89049 | 15322 ft | 386 kts | 304° |
| 2026-04-27 10:48 | -43.00207 | 171.86148 | 15710 ft | 389 kts | 303° |
| 2026-04-27 10:48 | -42.98537 | 171.83210 | 16135 ft | 391 kts | 303° |
| 2026-04-27 10:49 | -42.96853 | 171.80267 | 16622 ft | 392 kts | 303° |
| 2026-04-27 10:49 | -42.95187 | 171.77368 | 16998 ft | 394 kts | 303° |
| 2026-04-27 10:49 | -42.93487 | 171.74419 | 17347 ft | 397 kts | 303° |
| 2026-04-27 10:49 | -42.91773 | 171.71432 | 17721 ft | 398 kts | 303° |
| 2026-04-27 10:50 | -42.90057 | 171.68448 | 18011 ft | 401 kts | 303° |
| 2026-04-27 10:50 | -42.88409 | 171.65382 | 18419 ft | 399 kts | 298° |
| 2026-04-27 10:50 | -42.87117 | 171.62062 | 18775 ft | 395 kts | 288° |
| 2026-04-27 10:50 | -42.86251 | 171.58523 | 19080 ft | 393 kts | 281° |
| 2026-04-27 10:51 | -42.85572 | 171.54912 | 19428 ft | 394 kts | 280° |
| 2026-04-27 10:51 | -42.84908 | 171.51276 | 19709 ft | 397 kts | 281° |
| 2026-04-27 10:51 | -42.84235 | 171.47622 | 20009 ft | 399 kts | 281° |
| 2026-04-27 10:51 | -42.83556 | 171.43958 | 20361 ft | 400 kts | 281° |
| 2026-04-27 10:52 | -42.82880 | 171.40329 | 20704 ft | 400 kts | 281° |
| 2026-04-27 10:52 | -42.82190 | 171.36643 | 20994 ft | 402 kts | 281° |
| 2026-04-27 10:52 | -42.81494 | 171.32936 | 21256 ft | 405 kts | 281° |
| 2026-04-27 10:52 | -42.80792 | 171.29203 | 21500 ft | 407 kts | 281° |
| 2026-04-27 10:53 | -42.80086 | 171.25468 | 21874 ft | 407 kts | 281° |
| 2026-04-27 10:53 | -42.78671 | 171.17987 | 22454 ft | 410 kts | 282° |
| 2026-04-27 10:53 | -42.77956 | 171.14224 | 22706 ft | 412 kts | 282° |
| 2026-04-27 10:54 | -42.77235 | 171.10433 | 22962 ft | 414 kts | 282° |
| 2026-04-27 10:54 | -42.76520 | 171.06683 | 23220 ft | 415 kts | 282° |
| 2026-04-27 10:54 | -42.75784 | 171.02828 | 23496 ft | 417 kts | 282° |
| 2026-04-27 10:54 | -42.75059 | 170.99043 | 23752 ft | 418 kts | 282° |
| 2026-04-27 10:55 | -42.74324 | 170.95209 | 24007 ft | 420 kts | 282° |
| 2026-04-27 10:55 | -42.73584 | 170.91358 | 24259 ft | 421 kts | 282° |
| 2026-04-27 10:55 | -42.72841 | 170.87502 | 24510 ft | 422 kts | 282° |
| 2026-04-27 10:55 | -42.72092 | 170.83618 | 24745 ft | 424 kts | 282° |
| 2026-04-27 10:56 | -42.71341 | 170.79734 | 24979 ft | 425 kts | 282° |
| 2026-04-27 10:56 | -42.70587 | 170.75839 | 25230 ft | 427 kts | 282° |
| 2026-04-27 10:56 | -42.69828 | 170.71929 | 25474 ft | 428 kts | 283° |
| 2026-04-27 10:56 | -42.69075 | 170.68057 | 25701 ft | 430 kts | 283° |
| 2026-04-27 10:57 | -42.68308 | 170.64123 | 25956 ft | 430 kts | 283° |
| 2026-04-27 10:57 | -42.67540 | 170.60191 | 26200 ft | 432 kts | 283° |
| 2026-04-27 10:57 | -42.66765 | 170.56230 | 26437 ft | 433 kts | 283° |
| 2026-04-27 10:57 | -42.65989 | 170.52267 | 26671 ft | 434 kts | 283° |
| 2026-04-27 10:58 | -42.65206 | 170.48282 | 26895 ft | 437 kts | 283° |
| 2026-04-27 10:58 | -42.64417 | 170.44275 | 27148 ft | 438 kts | 283° |
| 2026-04-27 10:58 | -42.63628 | 170.40278 | 27412 ft | 439 kts | 283° |
| 2026-04-27 10:58 | -42.62837 | 170.36272 | 27655 ft | 440 kts | 283° |
| 2026-04-27 10:59 | -42.62049 | 170.32291 | 27891 ft | 442 kts | 283° |
| 2026-04-27 10:59 | -42.61249 | 170.28260 | 28135 ft | 443 kts | 283° |
| 2026-04-27 10:59 | -42.60444 | 170.24206 | 28376 ft | 444 kts | 283° |
| 2026-04-27 11:00 | -42.58824 | 170.16084 | 28852 ft | 446 kts | 284° |
| 2026-04-27 11:00 | -42.58010 | 170.12016 | 29096 ft | 447 kts | 284° |
| 2026-04-27 11:00 | -42.57192 | 170.07936 | 29312 ft | 449 kts | 284° |
| 2026-04-27 11:00 | -42.56366 | 170.03825 | 29527 ft | 450 kts | 284° |
| 2026-04-27 11:01 | -42.55549 | 169.99765 | 29735 ft | 452 kts | 284° |
| 2026-04-27 11:01 | -42.54718 | 169.95642 | 29982 ft | 452 kts | 284° |
| 2026-04-27 11:01 | -42.53886 | 169.91522 | 30184 ft | 453 kts | 284° |
| 2026-04-27 11:01 | -42.53051 | 169.87399 | 30384 ft | 455 kts | 284° |
| 2026-04-27 11:02 | -42.52493 | 169.84648 | 30502 ft | 456 kts | 284° |
| 2026-04-27 11:02 | -42.51649 | 169.80495 | 30707 ft | 457 kts | 284° |
| 2026-04-27 11:02 | -42.50802 | 169.76332 | 30908 ft | 459 kts | 284° |
| 2026-04-27 11:02 | -42.49952 | 169.72168 | 31163 ft | 459 kts | 284° |
| 2026-04-27 11:03 | -42.49102 | 169.68010 | 31457 ft | 457 kts | 284° |
| 2026-04-27 11:03 | -42.48251 | 169.63855 | 31735 ft | 457 kts | 284° |
| 2026-04-27 11:03 | -42.47401 | 169.59715 | 32047 ft | 455 kts | 284° |
| 2026-04-27 11:03 | -42.46551 | 169.55582 | 32325 ft | 454 kts | 284° |
| 2026-04-27 11:04 | -42.45714 | 169.51519 | 32571 ft | 454 kts | 284° |
| 2026-04-27 11:04 | -42.44863 | 169.47406 | 32830 ft | 453 kts | 284° |
| 2026-04-27 11:04 | -42.44013 | 169.43294 | 33085 ft | 452 kts | 284° |
| 2026-04-27 11:04 | -42.43165 | 169.39202 | 33364 ft | 451 kts | 284° |
| 2026-04-27 11:05 | -42.42249 | 169.35148 | 33626 ft | 451 kts | 288° |
| 2026-04-27 11:05 | -42.41038 | 169.31223 | 33843 ft | 452 kts | 292° |
| 2026-04-27 11:05 | -42.39698 | 169.27356 | 34060 ft | 452 kts | 294° |
| 2026-04-27 11:05 | -42.38315 | 169.23545 | 34298 ft | 451 kts | 294° |
| 2026-04-27 11:06 | -42.36912 | 169.19750 | 34536 ft | 450 kts | 294° |
| 2026-04-27 11:06 | -42.35527 | 169.16019 | 34764 ft | 449 kts | 294° |
| 2026-04-27 11:06 | -42.34127 | 169.12235 | 34960 ft | 449 kts | 294° |
| 2026-04-27 11:06 | -42.32737 | 169.08457 | 35190 ft | 448 kts | 294° |
| 2026-04-27 11:07 | -42.31350 | 169.04673 | 35406 ft | 448 kts | 294° |
| 2026-04-27 11:07 | -42.29971 | 169.00906 | 35601 ft | 447 kts | 294° |
| 2026-04-27 11:07 | -42.28589 | 168.97131 | 35842 ft | 446 kts | 294° |
| 2026-04-27 11:07 | -42.27228 | 168.93414 | 36063 ft | 445 kts | 294° |
| 2026-04-27 11:08 | -42.25853 | 168.89666 | 36240 ft | 445 kts | 294° |
| 2026-04-27 11:08 | -42.24478 | 168.85920 | 36389 ft | 445 kts | 294° |
| 2026-04-27 11:08 | -42.23101 | 168.82180 | 36535 ft | 445 kts | 293° |
| 2026-04-27 11:08 | -42.21738 | 168.78483 | 36683 ft | 445 kts | 294° |
| 2026-04-27 11:09 | -42.20348 | 168.74716 | 36916 ft | 442 kts | 294° |
| 2026-04-27 11:09 | -42.18995 | 168.71057 | 37231 ft | 437 kts | 293° |
| 2026-04-27 11:09 | -42.17642 | 168.67403 | 37506 ft | 434 kts | 293° |
| 2026-04-27 11:09 | -42.16292 | 168.63761 | 37650 ft | 433 kts | 293° |
| 2026-04-27 11:10 | -42.14947 | 168.60127 | 37764 ft | 433 kts | 293° |
| 2026-04-27 11:10 | -42.13599 | 168.56493 | 37891 ft | 433 kts | 293° |
| 2026-04-27 11:10 | -42.10918 | 168.49289 | 38113 ft | 432 kts | 293° |
| 2026-04-27 11:11 | -42.08208 | 168.42024 | 38201 ft | 435 kts | 293° |
| 2026-04-27 11:11 | -42.05471 | 168.34705 | 38202 ft | 438 kts | 293° |
| 2026-04-27 11:12 | -42.02739 | 168.27420 | 38203 ft | 438 kts | 293° |
| 2026-04-27 11:12 | -41.99984 | 168.20095 | 38202 ft | 438 kts | 293° |
| 2026-04-27 11:13 | -41.97240 | 168.12819 | 38202 ft | 438 kts | 293° |
| 2026-04-27 11:13 | -41.94483 | 168.05522 | 38203 ft | 438 kts | 293° |
| 2026-04-27 11:14 | -41.91717 | 167.98220 | 38202 ft | 438 kts | 293° |
| 2026-04-27 11:14 | -41.88966 | 167.90975 | 38202 ft | 438 kts | 293° |
| 2026-04-27 11:15 | -41.86192 | 167.83686 | 38202 ft | 438 kts | 294° |
| 2026-04-27 11:15 | -41.83412 | 167.76408 | 38202 ft | 438 kts | 294° |
| 2026-04-27 11:16 | -41.80647 | 167.69182 | 38202 ft | 438 kts | 294° |
| 2026-04-27 11:16 | -41.77857 | 167.61909 | 38200 ft | 439 kts | 294° |
| 2026-04-27 11:17 | -41.75060 | 167.54638 | 38201 ft | 438 kts | 294° |
| 2026-04-27 11:17 | -41.72261 | 167.47377 | 38202 ft | 439 kts | 294° |
| 2026-04-27 11:18 | -41.69449 | 167.40105 | 38202 ft | 439 kts | 294° |
| 2026-04-27 11:18 | -41.66648 | 167.32873 | 38202 ft | 440 kts | 294° |
| 2026-04-27 11:19 | -41.63825 | 167.25604 | 38201 ft | 440 kts | 294° |
| 2026-04-27 11:19 | -41.60985 | 167.18314 | 38202 ft | 441 kts | 294° |
| 2026-04-27 11:20 | -41.58149 | 167.11050 | 38207 ft | 441 kts | 294° |
| 2026-04-27 11:20 | -41.55324 | 167.03831 | 38212 ft | 441 kts | 295° |
| 2026-04-27 11:21 | -41.52475 | 166.96567 | 38212 ft | 441 kts | 295° |
| 2026-04-27 11:21 | -41.49620 | 166.89314 | 38210 ft | 441 kts | 295° |
| 2026-04-27 11:22 | -41.46757 | 166.82054 | 38211 ft | 442 kts | 295° |
| 2026-04-27 11:22 | -41.43909 | 166.74859 | 38210 ft | 441 kts | 295° |
| 2026-04-27 11:23 | -41.41039 | 166.67611 | 38212 ft | 441 kts | 295° |
| 2026-04-27 11:23 | -41.38180 | 166.60415 | 38210 ft | 441 kts | 295° |
| 2026-04-27 11:24 | -41.35305 | 166.53193 | 38209 ft | 441 kts | 295° |
| 2026-04-27 11:24 | -41.32417 | 166.45957 | 38210 ft | 442 kts | 295° |
| 2026-04-27 11:25 | -41.29549 | 166.38787 | 38212 ft | 441 kts | 295° |
| 2026-04-27 11:25 | -41.26660 | 166.31582 | 38210 ft | 441 kts | 295° |
| 2026-04-27 11:26 | -41.23768 | 166.24387 | 38212 ft | 442 kts | 295° |
| 2026-04-27 11:26 | -41.20866 | 166.17184 | 38212 ft | 442 kts | 295° |
| 2026-04-27 11:27 | -41.17973 | 166.10027 | 38208 ft | 442 kts | 296° |
| 2026-04-27 11:27 | -41.15052 | 166.02823 | 38222 ft | 443 kts | 296° |
| 2026-04-27 11:28 | -41.12145 | 165.95668 | 38217 ft | 443 kts | 296° |
| 2026-04-27 11:28 | -41.09209 | 165.88455 | 38218 ft | 443 kts | 296° |
| 2026-04-27 11:29 | -41.06274 | 165.81261 | 38216 ft | 444 kts | 296° |
| 2026-04-27 11:29 | -41.03351 | 165.74112 | 38222 ft | 444 kts | 296° |
| 2026-04-27 11:30 | -41.00398 | 165.66907 | 38219 ft | 445 kts | 296° |
| 2026-04-27 11:30 | -40.97435 | 165.59698 | 38222 ft | 446 kts | 296° |
| 2026-04-27 11:31 | -40.94463 | 165.52484 | 38219 ft | 446 kts | 296° |
| 2026-04-27 11:31 | -40.91491 | 165.45284 | 38219 ft | 446 kts | 296° |
| 2026-04-27 11:32 | -40.88529 | 165.38130 | 38221 ft | 447 kts | 296° |
| 2026-04-27 11:32 | -40.85540 | 165.30925 | 38224 ft | 447 kts | 297° |
| 2026-04-27 11:33 | -40.82543 | 165.23723 | 38218 ft | 447 kts | 297° |
| 2026-04-27 11:33 | -40.79541 | 165.16526 | 38222 ft | 447 kts | 297° |
| 2026-04-27 11:34 | -40.76538 | 165.09340 | 38223 ft | 447 kts | 297° |
| 2026-04-27 11:34 | -40.73552 | 165.02203 | 38218 ft | 447 kts | 297° |
| 2026-04-27 11:35 | -40.70534 | 164.95014 | 38216 ft | 447 kts | 297° |
| 2026-04-27 11:35 | -40.67509 | 164.87834 | 38223 ft | 448 kts | 297° |
| 2026-04-27 11:36 | -40.64499 | 164.80706 | 38217 ft | 447 kts | 297° |
| 2026-04-27 11:36 | -40.61471 | 164.73549 | 38224 ft | 447 kts | 297° |
| 2026-04-27 11:37 | -40.58434 | 164.66383 | 38219 ft | 448 kts | 297° |
| 2026-04-27 11:37 | -40.55391 | 164.59215 | 38224 ft | 448 kts | 297° |
| 2026-04-27 11:38 | -40.52360 | 164.52098 | 38213 ft | 449 kts | 297° |
| 2026-04-27 11:38 | -40.49300 | 164.44930 | 38218 ft | 449 kts | 297° |
| 2026-04-27 11:39 | -40.46241 | 164.37783 | 38222 ft | 449 kts | 297° |
| 2026-04-27 11:39 | -40.43170 | 164.30626 | 38220 ft | 449 kts | 297° |
| 2026-04-27 11:40 | -40.40118 | 164.23524 | 38222 ft | 450 kts | 298° |
| 2026-04-27 11:40 | -40.37035 | 164.16371 | 38222 ft | 450 kts | 298° |
| 2026-04-27 11:41 | -40.33943 | 164.09219 | 38214 ft | 450 kts | 298° |
| 2026-04-27 11:41 | -40.30849 | 164.02073 | 38218 ft | 450 kts | 298° |
| 2026-04-27 11:42 | -40.27750 | 163.94931 | 38218 ft | 451 kts | 298° |
| 2026-04-27 11:42 | -40.24667 | 163.87840 | 38223 ft | 451 kts | 298° |
| 2026-04-27 11:43 | -40.21550 | 163.80693 | 38230 ft | 451 kts | 298° |
| 2026-04-27 11:43 | -40.18432 | 163.73558 | 38227 ft | 451 kts | 298° |
| 2026-04-27 11:44 | -40.15305 | 163.66422 | 38228 ft | 451 kts | 298° |
| 2026-04-27 11:44 | -40.12193 | 163.59335 | 38230 ft | 451 kts | 298° |
| 2026-04-27 11:45 | -40.09594 | 163.53428 | 38231 ft | 450 kts | 298° |
| 2026-04-27 11:45 | -40.05960 | 163.45188 | 38227 ft | 450 kts | 298° |
| 2026-04-27 11:46 | -40.02828 | 163.38104 | 38226 ft | 450 kts | 298° |
| 2026-04-27 11:46 | -39.99692 | 163.31025 | 38228 ft | 450 kts | 298° |
| 2026-04-27 11:47 | -39.96544 | 163.23937 | 38221 ft | 452 kts | 298° |
| 2026-04-27 11:47 | -39.93404 | 163.16882 | 38220 ft | 453 kts | 299° |
| 2026-04-27 11:48 | -39.90227 | 163.09767 | 38221 ft | 454 kts | 299° |
| 2026-04-27 11:48 | -39.87044 | 163.02649 | 38219 ft | 454 kts | 299° |
| 2026-04-27 11:49 | -39.83861 | 162.95548 | 38228 ft | 454 kts | 299° |
| 2026-04-27 11:49 | -39.80671 | 162.88452 | 38218 ft | 454 kts | 299° |
| 2026-04-27 11:50 | -39.77474 | 162.81364 | 38223 ft | 454 kts | 299° |
| 2026-04-27 11:50 | -39.74298 | 162.74328 | 38218 ft | 454 kts | 299° |
| 2026-04-27 11:51 | -39.71093 | 162.67245 | 38230 ft | 453 kts | 299° |
| 2026-04-27 11:52 | -39.66296 | 162.56670 | 38229 ft | 452 kts | 299° |
| 2026-04-27 11:52 | -39.63117 | 162.49683 | 38234 ft | 453 kts | 300° |
| 2026-04-27 11:53 | -39.59907 | 162.42649 | 38226 ft | 452 kts | 300° |
| 2026-04-27 11:53 | -39.57236 | 162.36811 | 38236 ft | 452 kts | 300° |
| 2026-04-27 11:54 | -39.54029 | 162.29812 | 38229 ft | 451 kts | 300° |
| 2026-04-27 11:54 | -39.50816 | 162.22814 | 38228 ft | 452 kts | 300° |
| 2026-04-27 11:55 | -39.47614 | 162.15856 | 38231 ft | 453 kts | 300° |
| 2026-04-27 11:55 | -39.44382 | 162.08849 | 38230 ft | 452 kts | 300° |
| 2026-04-27 11:56 | -39.41155 | 162.01863 | 38226 ft | 452 kts | 300° |
| 2026-04-27 11:56 | -39.37919 | 161.94875 | 38229 ft | 452 kts | 300° |
| 2026-04-27 11:57 | -39.34698 | 161.87936 | 38228 ft | 452 kts | 300° |
| 2026-04-27 11:57 | -39.31451 | 161.80957 | 38229 ft | 453 kts | 300° |
| 2026-04-27 11:58 | -39.28189 | 161.73959 | 38227 ft | 454 kts | 300° |
| 2026-04-27 11:58 | -39.24934 | 161.66992 | 38235 ft | 454 kts | 300° |
| 2026-04-27 11:59 | -39.21674 | 161.60034 | 38226 ft | 456 kts | 300° |
| 2026-04-27 11:59 | -39.18406 | 161.53068 | 38245 ft | 456 kts | 300° |
| 2026-04-27 12:00 | -39.15112 | 161.46068 | 38240 ft | 457 kts | 300° |
| 2026-04-27 12:00 | -39.11809 | 161.39063 | 38244 ft | 458 kts | 300° |
| 2026-04-27 12:01 | -39.08500 | 161.32052 | 38226 ft | 458 kts | 300° |
| 2026-04-27 12:01 | -39.05203 | 161.25091 | 38232 ft | 458 kts | 300° |
| 2026-04-27 12:02 | -39.01872 | 161.18072 | 38230 ft | 459 kts | 300° |
| 2026-04-27 12:02 | -38.98542 | 161.11075 | 38245 ft | 459 kts | 301° |
| 2026-04-27 12:03 | -38.95197 | 161.04062 | 38235 ft | 459 kts | 300° |
| 2026-04-27 12:03 | -38.91843 | 160.97040 | 38240 ft | 463 kts | 300° |
| 2026-04-27 12:04 | -38.88482 | 160.90019 | 38242 ft | 464 kts | 300° |
| 2026-04-27 12:04 | -38.85098 | 160.82968 | 38240 ft | 464 kts | 300° |
| 2026-04-27 12:05 | -38.81705 | 160.75912 | 38241 ft | 464 kts | 300° |
| 2026-04-27 12:05 | -38.78328 | 160.68907 | 38230 ft | 464 kts | 300° |
| 2026-04-27 12:06 | -38.74922 | 160.61856 | 38230 ft | 465 kts | 300° |
| 2026-04-27 12:06 | -38.71515 | 160.54814 | 38246 ft | 465 kts | 300° |
| 2026-04-27 12:07 | -38.68100 | 160.47775 | 38229 ft | 465 kts | 300° |
| 2026-04-27 12:07 | -38.64705 | 160.40791 | 38245 ft | 465 kts | 300° |
| 2026-04-27 12:08 | -38.61276 | 160.33756 | 38245 ft | 465 kts | 300° |
| 2026-04-27 12:08 | -38.57847 | 160.26732 | 38230 ft | 466 kts | 301° |
| 2026-04-27 12:09 | -38.54428 | 160.19743 | 38248 ft | 466 kts | 301° |
| 2026-04-27 12:09 | -38.50983 | 160.12717 | 38248 ft | 466 kts | 301° |
| 2026-04-27 12:10 | -38.47528 | 160.05690 | 38249 ft | 466 kts | 301° |
| 2026-04-27 12:10 | -38.44091 | 159.98710 | 38247 ft | 466 kts | 301° |
| 2026-04-27 12:11 | -38.40630 | 159.91702 | 38249 ft | 466 kts | 301° |
| 2026-04-27 12:11 | -38.37165 | 159.84698 | 38248 ft | 467 kts | 301° |
| 2026-04-27 12:12 | -38.33715 | 159.77740 | 38248 ft | 466 kts | 301° |
| 2026-04-27 12:12 | -38.30241 | 159.70747 | 38248 ft | 466 kts | 301° |
| 2026-04-27 12:13 | -38.26765 | 159.63766 | 38249 ft | 467 kts | 301° |
| 2026-04-27 12:13 | -38.23283 | 159.56784 | 38248 ft | 466 kts | 301° |
| 2026-04-27 12:14 | -38.19823 | 159.49864 | 38249 ft | 466 kts | 301° |
| 2026-04-27 12:14 | -38.16338 | 159.42911 | 38247 ft | 466 kts | 301° |
| 2026-04-27 12:15 | -38.12845 | 159.35956 | 38248 ft | 467 kts | 301° |
| 2026-04-27 12:15 | -38.09348 | 159.29003 | 38248 ft | 466 kts | 301° |
| 2026-04-27 12:16 | -38.05870 | 159.22109 | 38247 ft | 466 kts | 301° |
| 2026-04-27 12:16 | -38.02366 | 159.15181 | 38247 ft | 465 kts | 301° |
| 2026-04-27 12:17 | -37.98861 | 159.08262 | 38247 ft | 465 kts | 301° |
| 2026-04-27 12:17 | -37.95370 | 159.01378 | 38272 ft | 468 kts | 301° |
| 2026-04-27 12:18 | -37.91824 | 158.94407 | 38282 ft | 471 kts | 301° |
| 2026-04-27 12:18 | -37.88287 | 158.87467 | 38283 ft | 471 kts | 301° |
| 2026-04-27 12:19 | -37.84733 | 158.80506 | 38284 ft | 471 kts | 302° |
| 2026-04-27 12:19 | -37.81174 | 158.73551 | 38286 ft | 470 kts | 301° |
| 2026-04-27 12:20 | -37.77613 | 158.66610 | 38285 ft | 470 kts | 301° |
| 2026-04-27 12:20 | -37.74054 | 158.59686 | 38290 ft | 469 kts | 302° |
| 2026-04-27 12:21 | -37.70492 | 158.52771 | 38294 ft | 469 kts | 302° |
| 2026-04-27 12:21 | -37.66946 | 158.45901 | 38295 ft | 469 kts | 302° |
| 2026-04-27 12:22 | -37.63374 | 158.38992 | 38295 ft | 469 kts | 302° |
| 2026-04-27 12:22 | -37.59822 | 158.32140 | 38294 ft | 468 kts | 302° |
| 2026-04-27 12:23 | -37.56251 | 158.25266 | 38294 ft | 468 kts | 302° |
| 2026-04-27 12:23 | -37.52671 | 158.18383 | 38294 ft | 469 kts | 302° |
| 2026-04-27 12:24 | -37.49087 | 158.11517 | 38294 ft | 469 kts | 302° |
| 2026-04-27 12:24 | -37.45517 | 158.04689 | 38295 ft | 469 kts | 302° |
| 2026-04-27 12:25 | -37.41917 | 157.97815 | 38290 ft | 469 kts | 302° |
| 2026-04-27 12:25 | -37.38337 | 157.90994 | 38295 ft | 469 kts | 302° |
| 2026-04-27 12:26 | -37.34725 | 157.84132 | 38294 ft | 469 kts | 302° |
| 2026-04-27 12:26 | -37.31114 | 157.77282 | 38295 ft | 470 kts | 302° |
| 2026-04-27 12:27 | -37.27522 | 157.70478 | 38294 ft | 471 kts | 302° |
| 2026-04-27 12:27 | -37.23891 | 157.63616 | 38294 ft | 471 kts | 302° |
| 2026-04-27 12:28 | -37.20254 | 157.56762 | 38295 ft | 472 kts | 302° |
| 2026-04-27 12:28 | -37.16608 | 157.49904 | 38294 ft | 472 kts | 302° |
| 2026-04-27 12:29 | -37.12975 | 157.43083 | 38294 ft | 473 kts | 302° |
| 2026-04-27 12:29 | -37.09312 | 157.36217 | 38288 ft | 473 kts | 302° |
| 2026-04-27 12:30 | -37.05666 | 157.29396 | 38290 ft | 474 kts | 302° |
| 2026-04-27 12:30 | -37.01988 | 157.22533 | 38301 ft | 474 kts | 302° |
| 2026-04-27 12:31 | -36.98305 | 157.15676 | 38303 ft | 474 kts | 302° |
| 2026-04-27 12:31 | -36.94623 | 157.08833 | 38303 ft | 474 kts | 303° |
| 2026-04-27 12:32 | -36.90957 | 157.02031 | 38303 ft | 475 kts | 303° |
| 2026-04-27 12:32 | -36.87261 | 156.95190 | 38303 ft | 475 kts | 303° |
| 2026-04-27 12:33 | -36.83553 | 156.88342 | 38302 ft | 475 kts | 303° |
| 2026-04-27 12:33 | -36.79870 | 156.81549 | 38303 ft | 475 kts | 303° |
| 2026-04-27 12:34 | -36.76152 | 156.74712 | 38303 ft | 475 kts | 303° |
| 2026-04-27 12:34 | -36.72437 | 156.67887 | 38303 ft | 475 kts | 303° |
| 2026-04-27 12:35 | -36.68739 | 156.61113 | 38303 ft | 475 kts | 303° |
| 2026-04-27 12:35 | -36.65011 | 156.54294 | 38303 ft | 476 kts | 303° |
| 2026-04-27 12:36 | -36.61280 | 156.47477 | 38302 ft | 476 kts | 303° |
| 2026-04-27 12:36 | -36.57536 | 156.40659 | 38303 ft | 475 kts | 303° |
| 2026-04-27 12:37 | -36.53819 | 156.33905 | 38303 ft | 476 kts | 303° |
| 2026-04-27 12:37 | -36.50067 | 156.27096 | 38303 ft | 477 kts | 303° |
| 2026-04-27 12:38 | -36.46310 | 156.20293 | 38303 ft | 477 kts | 303° |
| 2026-04-27 12:38 | -36.42573 | 156.13539 | 38303 ft | 477 kts | 303° |
| 2026-04-27 12:39 | -36.38809 | 156.06748 | 38303 ft | 477 kts | 303° |
| 2026-04-27 12:39 | -36.35033 | 155.99953 | 38304 ft | 477 kts | 303° |
| 2026-04-27 12:40 | -36.31283 | 155.93218 | 38312 ft | 477 kts | 303° |
| 2026-04-27 12:40 | -36.27501 | 155.86437 | 38312 ft | 478 kts | 303° |
| 2026-04-27 12:41 | -36.23715 | 155.79664 | 38312 ft | 478 kts | 303° |
| 2026-04-27 12:41 | -36.19922 | 155.72888 | 38311 ft | 477 kts | 303° |
| 2026-04-27 12:42 | -36.16156 | 155.66179 | 38312 ft | 477 kts | 303° |
| 2026-04-27 12:42 | -36.12367 | 155.59437 | 38312 ft | 478 kts | 303° |
| 2026-04-27 12:43 | -36.08560 | 155.52679 | 38312 ft | 477 kts | 303° |
| 2026-04-27 12:43 | -36.05400 | 155.47081 | 38312 ft | 477 kts | 303° |
| 2026-04-27 12:44 | -36.00974 | 155.39251 | 38312 ft | 477 kts | 303° |
| 2026-04-27 12:44 | -35.97811 | 155.33669 | 38312 ft | 477 kts | 304° |
| 2026-04-27 12:45 | -35.93988 | 155.26935 | 38312 ft | 478 kts | 304° |
| 2026-04-27 12:45 | -35.90161 | 155.20203 | 38312 ft | 479 kts | 304° |
| 2026-04-27 12:46 | -35.86354 | 155.13515 | 38312 ft | 479 kts | 304° |
| 2026-04-27 12:46 | -35.82517 | 155.06794 | 38321 ft | 479 kts | 304° |
| 2026-04-27 12:47 | -35.78700 | 155.00123 | 38321 ft | 479 kts | 304° |
| 2026-04-27 12:47 | -35.74853 | 154.93414 | 38321 ft | 479 kts | 304° |
| 2026-04-27 12:48 | -35.71020 | 154.86737 | 38321 ft | 479 kts | 304° |
| 2026-04-27 12:48 | -35.67169 | 154.80043 | 38321 ft | 478 kts | 304° |
| 2026-04-27 12:49 | -35.63319 | 154.73365 | 38321 ft | 478 kts | 304° |
| 2026-04-27 12:49 | -35.59712 | 154.66541 | 38321 ft | 477 kts | 299° |
| 2026-04-27 12:50 | -35.56438 | 154.59432 | 38321 ft | 477 kts | 298° |
| 2026-04-27 12:50 | -35.53220 | 154.52295 | 38322 ft | 477 kts | 297° |
| 2026-04-27 12:51 | -35.50018 | 154.45206 | 38321 ft | 477 kts | 298° |
| 2026-04-27 12:51 | -35.46791 | 154.38090 | 38321 ft | 477 kts | 298° |
| 2026-04-27 12:52 | -35.43556 | 154.30985 | 38321 ft | 477 kts | 298° |
| 2026-04-27 12:52 | -35.40313 | 154.23874 | 38321 ft | 476 kts | 298° |
| 2026-04-27 12:53 | -35.35461 | 154.13269 | 38339 ft | 477 kts | 298° |
| 2026-04-27 12:53 | -35.32207 | 154.06171 | 38339 ft | 477 kts | 298° |
| 2026-04-27 12:54 | -35.28970 | 153.99125 | 38343 ft | 477 kts | 298° |
| 2026-04-27 12:54 | -35.25708 | 153.92045 | 38346 ft | 477 kts | 298° |
| 2026-04-27 12:55 | -35.22442 | 153.84966 | 38348 ft | 477 kts | 298° |
| 2026-04-27 12:55 | -35.19173 | 153.77892 | 38350 ft | 477 kts | 298° |
| 2026-04-27 12:56 | -35.15916 | 153.70862 | 38348 ft | 477 kts | 298° |
| 2026-04-27 12:56 | -35.12633 | 153.63793 | 38350 ft | 477 kts | 298° |
| 2026-04-27 12:57 | -35.09349 | 153.56741 | 38349 ft | 478 kts | 298° |
| 2026-04-27 12:57 | -35.06077 | 153.49725 | 38350 ft | 478 kts | 298° |
| 2026-04-27 12:58 | -35.02784 | 153.42675 | 38350 ft | 478 kts | 298° |
| 2026-04-27 12:58 | -34.99482 | 153.35622 | 38344 ft | 478 kts | 298° |
| 2026-04-27 12:59 | -34.96177 | 153.28572 | 38349 ft | 478 kts | 298° |
| 2026-04-27 12:59 | -34.92880 | 153.21561 | 38350 ft | 478 kts | 298° |
| 2026-04-27 13:00 | -34.89559 | 153.14512 | 38348 ft | 478 kts | 298° |
| 2026-04-27 13:00 | -34.86244 | 153.07488 | 38350 ft | 479 kts | 298° |
| 2026-04-27 13:01 | -34.82919 | 153.00456 | 38350 ft | 479 kts | 299° |
| 2026-04-27 13:01 | -34.79605 | 152.93461 | 38349 ft | 479 kts | 299° |
| 2026-04-27 13:02 | -34.76266 | 152.86428 | 38350 ft | 480 kts | 299° |
| 2026-04-27 13:02 | -34.72921 | 152.79398 | 38348 ft | 480 kts | 299° |
| 2026-04-27 13:03 | -34.69594 | 152.72420 | 38347 ft | 480 kts | 299° |
| 2026-04-27 13:03 | -34.66242 | 152.65402 | 38347 ft | 480 kts | 299° |
| 2026-04-27 13:04 | -34.62883 | 152.58392 | 38348 ft | 480 kts | 299° |
| 2026-04-27 13:04 | -34.59521 | 152.51377 | 38349 ft | 480 kts | 299° |
| 2026-04-27 13:05 | -34.56177 | 152.44415 | 38348 ft | 480 kts | 299° |
| 2026-04-27 13:05 | -34.52801 | 152.37407 | 38348 ft | 480 kts | 299° |
| 2026-04-27 13:06 | -34.49428 | 152.30418 | 38349 ft | 479 kts | 299° |
| 2026-04-27 13:06 | -34.46053 | 152.23433 | 38350 ft | 480 kts | 299° |
| 2026-04-27 13:07 | -34.42668 | 152.16446 | 38350 ft | 480 kts | 299° |
| 2026-04-27 13:07 | -34.39297 | 152.09508 | 38350 ft | 480 kts | 299° |
| 2026-04-27 13:08 | -34.35903 | 152.02529 | 38348 ft | 481 kts | 299° |
| 2026-04-27 13:08 | -34.32508 | 151.95561 | 38347 ft | 480 kts | 299° |
| 2026-04-27 13:09 | -34.29124 | 151.88629 | 38350 ft | 481 kts | 299° |
| 2026-04-27 13:09 | -34.25707 | 151.81649 | 38348 ft | 481 kts | 299° |
| 2026-04-27 13:10 | -34.22286 | 151.74675 | 38347 ft | 481 kts | 299° |
| 2026-04-27 13:10 | -34.18888 | 151.67758 | 38347 ft | 481 kts | 299° |
| 2026-04-27 13:11 | -34.15458 | 151.60787 | 38350 ft | 482 kts | 299° |
| 2026-04-27 13:11 | -34.12024 | 151.53825 | 38350 ft | 482 kts | 299° |
| 2026-04-27 13:12 | -34.08589 | 151.46876 | 38347 ft | 482 kts | 299° |
| 2026-04-27 13:12 | -34.05170 | 151.39966 | 38349 ft | 483 kts | 300° |
| 2026-04-27 13:13 | -34.01722 | 151.33014 | 38350 ft | 483 kts | 299° |
| 2026-04-27 13:13 | -33.98288 | 151.26109 | 38350 ft | 483 kts | 300° |
| 2026-04-27 13:14 | -33.94950 | 151.19130 | 38350 ft | 482 kts | 294° |
| 2026-04-27 13:14 | -33.92612 | 151.11582 | 38347 ft | 481 kts | 287° |
| 2026-04-27 13:15 | -33.90585 | 151.03879 | 38350 ft | 481 kts | 286° |
| 2026-04-27 13:15 | -33.88616 | 150.96224 | 38349 ft | 482 kts | 285° |
| 2026-04-27 13:16 | -33.86618 | 150.88526 | 38348 ft | 482 kts | 286° |
| 2026-04-27 13:16 | -33.84597 | 150.80822 | 38346 ft | 483 kts | 286° |
| 2026-04-27 13:17 | -33.82569 | 150.73130 | 38345 ft | 483 kts | 286° |
| 2026-04-27 13:17 | -33.80541 | 150.65465 | 38345 ft | 483 kts | 286° |
| 2026-04-27 13:18 | -33.78493 | 150.57742 | 38347 ft | 483 kts | 286° |
| 2026-04-27 13:18 | -33.76459 | 150.50085 | 38347 ft | 484 kts | 286° |
| 2026-04-27 13:19 | -33.74401 | 150.42369 | 38352 ft | 484 kts | 286° |
| 2026-04-27 13:19 | -33.72343 | 150.34675 | 38351 ft | 484 kts | 286° |
| 2026-04-27 13:20 | -33.70285 | 150.27010 | 38346 ft | 485 kts | 286° |
| 2026-04-27 13:20 | -33.68195 | 150.19313 | 38349 ft | 484 kts | 286° |
| 2026-04-27 13:21 | -33.66096 | 150.11614 | 38350 ft | 485 kts | 286° |
| 2026-04-27 13:21 | -33.64006 | 150.03963 | 38353 ft | 484 kts | 286° |
| 2026-04-27 13:22 | -33.61900 | 149.96274 | 38351 ft | 485 kts | 286° |
| 2026-04-27 13:22 | -33.59787 | 149.88572 | 38347 ft | 486 kts | 286° |
| 2026-04-27 13:23 | -33.57659 | 149.80847 | 38339 ft | 486 kts | 286° |
| 2026-04-27 13:23 | -33.55542 | 149.73185 | 38340 ft | 486 kts | 286° |
| 2026-04-27 13:24 | -33.53412 | 149.65480 | 38339 ft | 487 kts | 286° |
| 2026-04-27 13:24 | -33.51272 | 149.57771 | 38339 ft | 487 kts | 286° |
| 2026-04-27 13:25 | -33.49137 | 149.50106 | 38340 ft | 488 kts | 286° |
| 2026-04-27 13:25 | -33.46979 | 149.42376 | 38339 ft | 488 kts | 286° |
| 2026-04-27 13:26 | -33.44820 | 149.34662 | 38339 ft | 489 kts | 286° |
| 2026-04-27 13:26 | -33.42650 | 149.26935 | 38333 ft | 490 kts | 286° |
| 2026-04-27 13:27 | -33.40486 | 149.19241 | 38330 ft | 491 kts | 286° |
| 2026-04-27 13:27 | -33.38303 | 149.11497 | 38322 ft | 491 kts | 286° |
| 2026-04-27 13:28 | -33.36107 | 149.03744 | 38322 ft | 492 kts | 286° |
| 2026-04-27 13:28 | -33.33906 | 148.95985 | 38321 ft | 493 kts | 286° |
| 2026-04-27 13:29 | -33.31697 | 148.88212 | 38313 ft | 494 kts | 286° |
| 2026-04-27 13:29 | -33.29479 | 148.80432 | 38312 ft | 495 kts | 286° |
| 2026-04-27 13:30 | -33.27250 | 148.72637 | 38312 ft | 496 kts | 286° |
| 2026-04-27 13:30 | -33.25014 | 148.64837 | 38312 ft | 496 kts | 286° |
| 2026-04-27 13:31 | -33.22770 | 148.57035 | 38312 ft | 497 kts | 286° |
| 2026-04-27 13:31 | -33.20519 | 148.49226 | 38310 ft | 498 kts | 286° |
| 2026-04-27 13:32 | -33.18264 | 148.41419 | 38302 ft | 498 kts | 286° |
| 2026-04-27 13:32 | -33.15998 | 148.33604 | 38302 ft | 498 kts | 286° |
| 2026-04-27 13:33 | -33.13678 | 148.25809 | 38300 ft | 500 kts | 290° |
| 2026-04-27 13:33 | -33.10939 | 148.19706 | 38303 ft | 503 kts | 298° |
| 2026-04-27 13:34 | -33.07194 | 148.12639 | 38303 ft | 504 kts | 300° |
| 2026-04-27 13:34 | -33.02739 | 148.04512 | 38303 ft | 504 kts | 301° |
| 2026-04-27 13:35 | -32.99532 | 147.98660 | 38303 ft | 503 kts | 300° |
| 2026-04-27 13:35 | -32.95730 | 147.91694 | 38303 ft | 507 kts | 300° |
| 2026-04-27 13:36 | -32.91856 | 147.84594 | 38303 ft | 509 kts | 300° |
| 2026-04-27 13:36 | -32.88029 | 147.77592 | 38302 ft | 508 kts | 300° |
| 2026-04-27 13:37 | -32.84164 | 147.70538 | 38302 ft | 508 kts | 300° |
| 2026-04-27 13:37 | -32.80304 | 147.63506 | 38303 ft | 508 kts | 300° |
| 2026-04-27 13:38 | -32.76439 | 147.56476 | 38302 ft | 508 kts | 300° |
| 2026-04-27 13:38 | -32.72570 | 147.49451 | 38303 ft | 508 kts | 300° |
| 2026-04-27 13:39 | -32.68699 | 147.42438 | 38303 ft | 508 kts | 300° |
| 2026-04-27 13:39 | -32.64818 | 147.35418 | 38302 ft | 509 kts | 300° |
| 2026-04-27 13:40 | -32.60926 | 147.28394 | 38303 ft | 509 kts | 300° |
| 2026-04-27 13:40 | -32.57052 | 147.21416 | 38303 ft | 509 kts | 300° |
| 2026-04-27 13:41 | -32.53148 | 147.14395 | 38302 ft | 511 kts | 300° |
| 2026-04-27 13:41 | -32.49219 | 147.07338 | 38304 ft | 512 kts | 300° |
| 2026-04-27 13:42 | -32.45305 | 147.00326 | 38303 ft | 513 kts | 300° |
| 2026-04-27 13:42 | -32.41352 | 146.93261 | 38303 ft | 514 kts | 300° |
| 2026-04-27 13:43 | -32.37396 | 146.86201 | 38302 ft | 515 kts | 300° |
| 2026-04-27 13:43 | -32.33452 | 146.79174 | 38303 ft | 516 kts | 300° |
| 2026-04-27 13:44 | -32.29466 | 146.72085 | 38303 ft | 518 kts | 300° |
| 2026-04-27 13:44 | -32.25461 | 146.64975 | 38302 ft | 519 kts | 300° |
| 2026-04-27 13:45 | -32.21449 | 146.57869 | 38303 ft | 521 kts | 300° |
| 2026-04-27 13:45 | -32.17428 | 146.50760 | 38295 ft | 521 kts | 299° |
| 2026-04-27 13:46 | -32.13395 | 146.43643 | 38295 ft | 522 kts | 299° |
| 2026-04-27 13:46 | -32.09374 | 146.36558 | 38293 ft | 523 kts | 299° |
| 2026-04-27 13:47 | -32.05291 | 146.29377 | 38290 ft | 524 kts | 299° |
| 2026-04-27 13:47 | -32.01237 | 146.22262 | 38295 ft | 525 kts | 299° |
| 2026-04-27 13:48 | -31.97163 | 146.15127 | 38295 ft | 525 kts | 299° |
| 2026-04-27 13:48 | -31.93075 | 146.07979 | 38303 ft | 526 kts | 299° |
| 2026-04-27 13:49 | -31.88976 | 146.00826 | 38303 ft | 526 kts | 299° |
| 2026-04-27 13:49 | -31.84876 | 145.93686 | 38303 ft | 526 kts | 299° |
| 2026-04-27 13:50 | -31.80805 | 145.86608 | 38303 ft | 526 kts | 300° |
| 2026-04-27 13:50 | -31.76695 | 145.79475 | 38303 ft | 526 kts | 300° |
| 2026-04-27 13:51 | -31.72592 | 145.72369 | 38303 ft | 525 kts | 300° |
| 2026-04-27 13:51 | -31.68509 | 145.65309 | 38294 ft | 524 kts | 300° |
| 2026-04-27 13:52 | -31.64410 | 145.58233 | 38294 ft | 523 kts | 300° |
| 2026-04-27 13:52 | -31.60310 | 145.51169 | 38292 ft | 523 kts | 300° |
| 2026-04-27 13:53 | -31.54189 | 145.40647 | 38294 ft | 521 kts | 300° |
| 2026-04-27 13:54 | -31.50089 | 145.33615 | 38294 ft | 520 kts | 300° |
| 2026-04-27 13:54 | -31.46007 | 145.26628 | 38294 ft | 520 kts | 300° |
| 2026-04-27 13:55 | -31.41940 | 145.19677 | 38294 ft | 519 kts | 300° |
| 2026-04-27 13:55 | -31.37852 | 145.12703 | 38295 ft | 518 kts | 300° |
| 2026-04-27 13:56 | -31.33773 | 145.05761 | 38303 ft | 517 kts | 300° |
| 2026-04-27 13:56 | -31.29688 | 144.98817 | 38302 ft | 517 kts | 300° |
| 2026-04-27 13:57 | -31.25604 | 144.91886 | 38303 ft | 516 kts | 300° |
| 2026-04-27 13:57 | -31.21527 | 144.84983 | 38303 ft | 516 kts | 300° |
| 2026-04-27 13:58 | -31.17478 | 144.78137 | 38283 ft | 516 kts | 300° |
| 2026-04-27 13:58 | -31.13382 | 144.71225 | 38285 ft | 516 kts | 300° |
| 2026-04-27 13:59 | -31.09298 | 144.64344 | 38283 ft | 516 kts | 300° |
| 2026-04-27 13:59 | -31.05220 | 144.57483 | 38284 ft | 516 kts | 299° |
| 2026-04-27 14:00 | -31.01148 | 144.50647 | 38284 ft | 515 kts | 299° |
| 2026-04-27 14:00 | -30.97045 | 144.43772 | 38277 ft | 515 kts | 299° |
| 2026-04-27 14:01 | -30.92940 | 144.36903 | 38268 ft | 515 kts | 299° |
| 2026-04-27 14:01 | -30.88840 | 144.30056 | 38267 ft | 515 kts | 299° |
| 2026-04-27 14:02 | -30.84731 | 144.23206 | 38266 ft | 515 kts | 299° |
| 2026-04-27 14:02 | -30.80670 | 144.16449 | 38266 ft | 515 kts | 299° |
| 2026-04-27 14:03 | -30.76558 | 144.09616 | 38265 ft | 515 kts | 299° |
| 2026-04-27 14:03 | -30.72432 | 144.02769 | 38257 ft | 515 kts | 299° |
| 2026-04-27 14:04 | -30.68316 | 143.95953 | 38256 ft | 514 kts | 299° |
| 2026-04-27 14:04 | -30.64210 | 143.89169 | 38256 ft | 512 kts | 299° |
| 2026-04-27 14:05 | -30.60133 | 143.82442 | 38258 ft | 512 kts | 299° |
| 2026-04-27 14:05 | -30.56028 | 143.75679 | 38257 ft | 512 kts | 299° |
| 2026-04-27 14:06 | -30.51924 | 143.68931 | 38256 ft | 512 kts | 299° |
| 2026-04-27 14:06 | -30.47815 | 143.62182 | 38257 ft | 512 kts | 299° |
| 2026-04-27 14:07 | -30.43734 | 143.55493 | 38257 ft | 512 kts | 300° |
| 2026-04-27 14:07 | -30.39620 | 143.48763 | 38256 ft | 511 kts | 300° |
| 2026-04-27 14:08 | -30.35505 | 143.42039 | 38246 ft | 511 kts | 300° |
| 2026-04-27 14:08 | -30.31414 | 143.35371 | 38248 ft | 510 kts | 300° |
| 2026-04-27 14:09 | -30.27297 | 143.28667 | 38247 ft | 509 kts | 300° |
| 2026-04-27 14:09 | -30.23188 | 143.21988 | 38227 ft | 509 kts | 300° |
| 2026-04-27 14:10 | -30.19083 | 143.15327 | 38253 ft | 508 kts | 300° |
| 2026-04-27 14:10 | -30.17058 | 143.12046 | 38442 ft | 506 kts | 300° |
| 2026-04-27 14:10 | -30.15012 | 143.08736 | 38672 ft | 504 kts | 300° |
| 2026-04-27 14:10 | -30.12973 | 143.05442 | 38886 ft | 502 kts | 300° |
| 2026-04-27 14:11 | -30.10946 | 143.02169 | 39082 ft | 500 kts | 300° |
| 2026-04-27 14:11 | -30.08917 | 142.98890 | 39219 ft | 500 kts | 300° |
| 2026-04-27 14:11 | -30.06892 | 142.95622 | 39329 ft | 499 kts | 300° |
| 2026-04-27 14:11 | -30.04895 | 142.92403 | 39480 ft | 499 kts | 300° |
| 2026-04-27 14:12 | -30.02868 | 142.89141 | 39569 ft | 499 kts | 301° |
| 2026-04-27 14:12 | -30.00847 | 142.85891 | 39680 ft | 498 kts | 301° |
| 2026-04-27 14:12 | -29.98825 | 142.82643 | 39811 ft | 497 kts | 301° |
| 2026-04-27 14:12 | -29.96810 | 142.79408 | 39963 ft | 495 kts | 301° |
| 2026-04-27 14:13 | -29.94800 | 142.76183 | 40089 ft | 494 kts | 301° |
| 2026-04-27 14:13 | -29.92790 | 142.72959 | 40193 ft | 494 kts | 301° |
| 2026-04-27 14:13 | -29.90808 | 142.69782 | 40231 ft | 495 kts | 301° |
| 2026-04-27 14:14 | -29.86757 | 142.63312 | 40230 ft | 498 kts | 301° |
| 2026-04-27 14:14 | -29.82727 | 142.56872 | 40230 ft | 497 kts | 301° |
| 2026-04-27 14:15 | -29.78680 | 142.50413 | 40229 ft | 496 kts | 301° |
| 2026-04-27 14:15 | -29.74634 | 142.43971 | 40231 ft | 496 kts | 301° |
| 2026-04-27 14:16 | -29.70578 | 142.37524 | 40229 ft | 496 kts | 301° |
| 2026-04-27 14:16 | -29.66552 | 142.31134 | 40229 ft | 495 kts | 301° |
| 2026-04-27 14:17 | -29.62508 | 142.24728 | 40229 ft | 495 kts | 301° |
| 2026-04-27 14:17 | -29.58471 | 142.18341 | 40228 ft | 495 kts | 301° |
| 2026-04-27 14:18 | -29.54424 | 142.11949 | 40229 ft | 495 kts | 301° |
| 2026-04-27 14:18 | -29.50364 | 142.05546 | 40229 ft | 495 kts | 301° |
| 2026-04-27 14:19 | -29.46323 | 141.99183 | 40229 ft | 495 kts | 301° |
| 2026-04-27 14:19 | -29.42273 | 141.92816 | 40230 ft | 493 kts | 302° |
| 2026-04-27 14:20 | -29.38218 | 141.86452 | 40229 ft | 492 kts | 302° |
| 2026-04-27 14:20 | -29.34173 | 141.80112 | 40226 ft | 492 kts | 302° |
| 2026-04-27 14:21 | -29.30123 | 141.73774 | 40220 ft | 492 kts | 302° |
| 2026-04-27 14:21 | -29.26109 | 141.67502 | 40221 ft | 491 kts | 302° |
| 2026-04-27 14:22 | -29.22057 | 141.61180 | 40220 ft | 491 kts | 302° |
| 2026-04-27 14:22 | -29.18004 | 141.54867 | 40220 ft | 491 kts | 302° |
| 2026-04-27 14:23 | -29.13982 | 141.48611 | 40220 ft | 490 kts | 302° |
| 2026-04-27 14:23 | -29.09933 | 141.42322 | 40220 ft | 490 kts | 302° |
| 2026-04-27 14:24 | -29.06574 | 141.37112 | 40220 ft | 489 kts | 302° |
| 2026-04-27 14:24 | -29.02531 | 141.30850 | 40220 ft | 489 kts | 302° |
| 2026-04-27 14:25 | -28.97829 | 141.23580 | 40221 ft | 489 kts | 302° |
| 2026-04-27 14:25 | -28.94440 | 141.18347 | 40220 ft | 488 kts | 302° |
| 2026-04-27 14:26 | -28.90403 | 141.12123 | 40220 ft | 488 kts | 302° |
| 2026-04-27 14:26 | -28.86386 | 141.05939 | 40221 ft | 487 kts | 302° |
| 2026-04-27 14:27 | -28.82340 | 140.99719 | 40220 ft | 487 kts | 302° |
| 2026-04-27 14:27 | -28.78291 | 140.93503 | 40220 ft | 487 kts | 302° |
| 2026-04-27 14:28 | -28.74278 | 140.87353 | 40213 ft | 486 kts | 302° |
| 2026-04-27 14:28 | -28.70232 | 140.81160 | 40209 ft | 486 kts | 302° |
| 2026-04-27 14:29 | -28.66188 | 140.74980 | 40205 ft | 486 kts | 303° |
| 2026-04-27 14:29 | -28.62172 | 140.68851 | 40205 ft | 486 kts | 303° |
| 2026-04-27 14:30 | -28.58121 | 140.62678 | 40201 ft | 485 kts | 303° |
| 2026-04-27 14:30 | -28.54080 | 140.56530 | 40202 ft | 485 kts | 303° |
| 2026-04-27 14:31 | -28.50031 | 140.50378 | 40194 ft | 484 kts | 303° |
| 2026-04-27 14:31 | -28.45989 | 140.44246 | 40194 ft | 484 kts | 303° |
| 2026-04-27 14:32 | -28.41980 | 140.38172 | 40194 ft | 483 kts | 303° |
| 2026-04-27 14:32 | -28.37943 | 140.32064 | 40194 ft | 483 kts | 303° |
| 2026-04-27 14:33 | -28.33907 | 140.25967 | 40194 ft | 483 kts | 303° |
| 2026-04-27 14:33 | -28.29861 | 140.19863 | 40194 ft | 483 kts | 303° |
| 2026-04-27 14:34 | -28.25825 | 140.13785 | 40192 ft | 482 kts | 303° |
| 2026-04-27 14:34 | -28.21808 | 140.07742 | 40194 ft | 482 kts | 303° |
| 2026-04-27 14:35 | -28.17739 | 140.01629 | 40186 ft | 482 kts | 303° |
| 2026-04-27 14:35 | -28.13721 | 139.95604 | 40202 ft | 482 kts | 303° |
| 2026-04-27 14:36 | -28.09671 | 139.89536 | 40199 ft | 482 kts | 303° |
| 2026-04-27 14:36 | -28.05627 | 139.83488 | 40203 ft | 482 kts | 303° |
| 2026-04-27 14:37 | -28.01567 | 139.77424 | 40204 ft | 482 kts | 303° |
| 2026-04-27 14:37 | -27.97535 | 139.71410 | 40203 ft | 482 kts | 303° |
| 2026-04-27 14:38 | -27.93481 | 139.65373 | 40202 ft | 482 kts | 303° |
| 2026-04-27 14:38 | -27.89417 | 139.59328 | 40205 ft | 482 kts | 303° |
| 2026-04-27 14:39 | -27.85378 | 139.53328 | 40199 ft | 482 kts | 303° |
| 2026-04-27 14:39 | -27.81313 | 139.47298 | 40200 ft | 482 kts | 303° |
| 2026-04-27 14:40 | -27.77236 | 139.41261 | 40190 ft | 482 kts | 304° |
| 2026-04-27 14:40 | -27.73167 | 139.35243 | 40194 ft | 482 kts | 303° |
| 2026-04-27 14:41 | -27.69094 | 139.29227 | 40193 ft | 482 kts | 303° |
| 2026-04-27 14:41 | -27.65032 | 139.23234 | 40193 ft | 482 kts | 303° |
| 2026-04-27 14:42 | -27.60958 | 139.17234 | 40194 ft | 482 kts | 303° |
| 2026-04-27 14:42 | -27.56886 | 139.11244 | 40194 ft | 482 kts | 304° |
| 2026-04-27 14:43 | -27.52805 | 139.05249 | 40194 ft | 482 kts | 304° |
| 2026-04-27 14:43 | -27.48741 | 138.99288 | 40194 ft | 482 kts | 303° |
| 2026-04-27 14:44 | -27.44644 | 138.93286 | 40194 ft | 482 kts | 303° |
| 2026-04-27 14:44 | -27.40560 | 138.87312 | 40194 ft | 482 kts | 304° |
| 2026-04-27 14:45 | -27.36459 | 138.81320 | 40194 ft | 482 kts | 303° |
| 2026-04-27 14:45 | -27.32361 | 138.75341 | 40194 ft | 482 kts | 303° |
| 2026-04-27 14:46 | -27.28284 | 138.69402 | 40191 ft | 482 kts | 303° |
| 2026-04-27 14:46 | -27.24183 | 138.63435 | 40194 ft | 482 kts | 304° |
| 2026-04-27 14:47 | -27.20071 | 138.57461 | 40194 ft | 482 kts | 304° |
| 2026-04-27 14:47 | -27.15962 | 138.51497 | 40193 ft | 482 kts | 304° |
| 2026-04-27 14:48 | -27.11865 | 138.45561 | 40179 ft | 482 kts | 304° |
| 2026-04-27 14:48 | -27.05693 | 138.36632 | 40185 ft | 482 kts | 304° |
| 2026-04-27 14:49 | -27.01578 | 138.30689 | 40185 ft | 482 kts | 304° |
| 2026-04-27 14:49 | -26.97457 | 138.24745 | 40179 ft | 483 kts | 304° |
| 2026-04-27 14:50 | -26.93331 | 138.18802 | 40191 ft | 483 kts | 304° |
| 2026-04-27 14:50 | -26.89224 | 138.12897 | 40179 ft | 483 kts | 304° |
| 2026-04-27 14:51 | -26.85088 | 138.06957 | 40188 ft | 483 kts | 304° |
| 2026-04-27 14:51 | -26.81648 | 138.02022 | 40184 ft | 483 kts | 304° |
| 2026-04-27 14:52 | -26.76800 | 137.95077 | 40191 ft | 484 kts | 303° |
| 2026-04-27 14:52 | -26.72669 | 137.89166 | 40180 ft | 486 kts | 303° |
| 2026-04-27 14:53 | -26.68496 | 137.83204 | 40180 ft | 486 kts | 303° |
| 2026-04-27 14:53 | -26.64327 | 137.77257 | 40186 ft | 486 kts | 303° |
| 2026-04-27 14:54 | -26.60147 | 137.71303 | 40183 ft | 486 kts | 303° |
| 2026-04-27 14:54 | -26.55977 | 137.65370 | 40181 ft | 486 kts | 303° |
| 2026-04-27 14:55 | -26.51823 | 137.59466 | 40180 ft | 486 kts | 303° |
| 2026-04-27 14:55 | -26.47640 | 137.53529 | 40180 ft | 487 kts | 303° |
| 2026-04-27 14:56 | -26.43444 | 137.47583 | 40186 ft | 486 kts | 303° |
| 2026-04-27 14:56 | -26.39257 | 137.41656 | 40187 ft | 487 kts | 303° |
| 2026-04-27 14:57 | -26.35060 | 137.35724 | 40180 ft | 487 kts | 303° |
| 2026-04-27 14:57 | -26.30909 | 137.29863 | 40184 ft | 488 kts | 303° |
| 2026-04-27 14:58 | -26.26649 | 137.23856 | 40191 ft | 488 kts | 303° |
| 2026-04-27 14:58 | -26.22438 | 137.17927 | 40179 ft | 489 kts | 303° |
| 2026-04-27 14:59 | -26.18240 | 137.12024 | 40184 ft | 489 kts | 303° |
| 2026-04-27 14:59 | -26.13996 | 137.06064 | 40185 ft | 490 kts | 303° |
| 2026-04-27 15:00 | -26.09754 | 137.00114 | 40180 ft | 490 kts | 303° |
| 2026-04-27 15:00 | -26.05536 | 136.94205 | 40185 ft | 491 kts | 303° |
| 2026-04-27 15:01 | -26.01272 | 136.88240 | 40179 ft | 492 kts | 303° |
| 2026-04-27 15:01 | -25.97020 | 136.82300 | 40187 ft | 492 kts | 302° |
| 2026-04-27 15:02 | -25.92763 | 136.76362 | 40174 ft | 492 kts | 302° |
| 2026-04-27 15:02 | -25.88502 | 136.70429 | 40174 ft | 492 kts | 302° |
| 2026-04-27 15:03 | -25.84227 | 136.64490 | 40172 ft | 490 kts | 301° |
| 2026-04-27 15:03 | -25.79990 | 136.58602 | 40175 ft | 486 kts | 301° |
| 2026-04-27 15:04 | -25.75765 | 136.52733 | 40174 ft | 486 kts | 301° |
| 2026-04-27 15:04 | -25.71538 | 136.46870 | 40175 ft | 486 kts | 301° |
| 2026-04-27 15:05 | -25.67337 | 136.41054 | 40174 ft | 486 kts | 301° |
| 2026-04-27 15:05 | -25.63100 | 136.35197 | 40174 ft | 486 kts | 301° |
| 2026-04-27 15:06 | -25.58864 | 136.29349 | 40174 ft | 486 kts | 300° |
| 2026-04-27 15:06 | -25.54627 | 136.23507 | 40174 ft | 486 kts | 301° |
| 2026-04-27 15:07 | -25.50421 | 136.17715 | 40174 ft | 485 kts | 301° |
| 2026-04-27 15:07 | -25.46190 | 136.11895 | 40174 ft | 485 kts | 301° |
| 2026-04-27 15:08 | -25.41949 | 136.06070 | 40174 ft | 485 kts | 301° |
| 2026-04-27 15:08 | -25.37734 | 136.00286 | 40174 ft | 485 kts | 301° |
| 2026-04-27 15:09 | -25.33495 | 135.94477 | 40174 ft | 484 kts | 301° |
| 2026-04-27 15:09 | -25.29258 | 135.88681 | 40174 ft | 483 kts | 301° |
| 2026-04-27 15:10 | -25.25038 | 135.82912 | 40174 ft | 482 kts | 301° |
| 2026-04-27 15:10 | -25.20847 | 135.77188 | 40174 ft | 482 kts | 301° |
| 2026-04-27 15:11 | -25.16617 | 135.71419 | 40174 ft | 482 kts | 301° |
| 2026-04-27 15:11 | -25.12388 | 135.65659 | 40174 ft | 482 kts | 301° |
| 2026-04-27 15:12 | -25.08875 | 135.60881 | 40174 ft | 482 kts | 301° |
| 2026-04-27 15:12 | -25.04646 | 135.55135 | 40174 ft | 481 kts | 301° |
| 2026-04-27 15:13 | -25.00422 | 135.49400 | 40174 ft | 481 kts | 301° |
| 2026-04-27 15:13 | -24.96194 | 135.43669 | 40174 ft | 481 kts | 301° |
| 2026-04-27 15:14 | -24.91991 | 135.37977 | 40178 ft | 482 kts | 301° |
| 2026-04-27 15:14 | -24.87760 | 135.32256 | 40174 ft | 481 kts | 301° |
| 2026-04-27 15:15 | -24.83536 | 135.26551 | 40180 ft | 480 kts | 301° |
| 2026-04-27 15:15 | -24.79305 | 135.20842 | 40191 ft | 480 kts | 301° |
| 2026-04-27 15:16 | -24.75101 | 135.15177 | 40179 ft | 481 kts | 301° |
| 2026-04-27 15:16 | -24.70867 | 135.09478 | 40188 ft | 481 kts | 301° |
| 2026-04-27 15:17 | -24.66631 | 135.03784 | 40191 ft | 480 kts | 301° |
| 2026-04-27 15:17 | -24.62403 | 134.98108 | 40184 ft | 480 kts | 301° |
| 2026-04-27 15:18 | -24.58198 | 134.92466 | 40180 ft | 479 kts | 301° |
| 2026-04-27 15:18 | -24.53962 | 134.86792 | 40185 ft | 479 kts | 301° |
| 2026-04-27 15:19 | -24.49738 | 134.81141 | 40180 ft | 478 kts | 301° |
| 2026-04-27 15:19 | -24.45512 | 134.75492 | 40180 ft | 478 kts | 301° |
| 2026-04-27 15:20 | -24.41279 | 134.69841 | 40191 ft | 478 kts | 301° |
| 2026-04-27 15:20 | -24.37046 | 134.64196 | 40180 ft | 479 kts | 301° |
| 2026-04-27 15:21 | -24.32816 | 134.58564 | 40180 ft | 478 kts | 301° |
| 2026-04-27 15:21 | -24.28613 | 134.52973 | 40180 ft | 477 kts | 301° |
| 2026-04-27 15:22 | -24.24386 | 134.47356 | 40179 ft | 477 kts | 301° |
| 2026-04-27 15:22 | -24.20150 | 134.41734 | 40180 ft | 477 kts | 301° |
| 2026-04-27 15:23 | -24.15930 | 134.36139 | 40186 ft | 477 kts | 301° |
| 2026-04-27 15:23 | -24.11687 | 134.30520 | 40181 ft | 477 kts | 301° |
| 2026-04-27 15:24 | -24.07473 | 134.24946 | 40180 ft | 477 kts | 301° |
| 2026-04-27 15:24 | -24.03225 | 134.19335 | 40185 ft | 477 kts | 301° |
| 2026-04-27 15:25 | -23.98983 | 134.13737 | 40187 ft | 478 kts | 301° |
| 2026-04-27 15:25 | -23.94736 | 134.08138 | 40187 ft | 478 kts | 301° |
| 2026-04-27 15:26 | -23.90509 | 134.02573 | 40180 ft | 478 kts | 301° |
| 2026-04-27 15:26 | -23.86259 | 133.96983 | 40184 ft | 478 kts | 301° |
| 2026-04-27 15:27 | -23.82007 | 133.91397 | 40191 ft | 478 kts | 301° |
| 2026-04-27 15:27 | -23.78098 | 133.85650 | 40180 ft | 469 kts | 294° |
| 2026-04-27 15:28 | -23.74626 | 133.79632 | 40188 ft | 468 kts | 293° |
| 2026-04-27 15:28 | -23.71223 | 133.73573 | 40189 ft | 467 kts | 293° |
| 2026-04-27 15:29 | -23.67827 | 133.67526 | 40181 ft | 467 kts | 293° |
| 2026-04-27 15:29 | -23.64442 | 133.61528 | 40188 ft | 467 kts | 293° |
| 2026-04-27 15:30 | -23.61025 | 133.55493 | 40181 ft | 467 kts | 294° |
| 2026-04-27 15:30 | -23.57603 | 133.49460 | 40180 ft | 467 kts | 294° |
| 2026-04-27 15:31 | -23.54179 | 133.43430 | 40187 ft | 466 kts | 294° |
| 2026-04-27 15:31 | -23.50787 | 133.37462 | 40181 ft | 466 kts | 294° |
| 2026-04-27 15:32 | -23.47369 | 133.31455 | 40191 ft | 466 kts | 294° |
| 2026-04-27 15:32 | -23.43948 | 133.25450 | 40189 ft | 466 kts | 294° |
| 2026-04-27 15:33 | -23.40525 | 133.19449 | 40180 ft | 465 kts | 294° |
| 2026-04-27 15:33 | -23.37106 | 133.13462 | 40180 ft | 465 kts | 294° |
| 2026-04-27 15:34 | -23.33682 | 133.07473 | 40185 ft | 466 kts | 294° |
| 2026-04-27 15:34 | -23.30276 | 133.01522 | 40181 ft | 466 kts | 294° |
| 2026-04-27 15:35 | -23.26838 | 132.95552 | 40179 ft | 465 kts | 294° |
| 2026-04-27 15:35 | -23.23423 | 132.89609 | 40181 ft | 463 kts | 294° |
| 2026-04-27 15:36 | -23.20019 | 132.83649 | 40173 ft | 465 kts | 294° |
| 2026-04-27 15:36 | -23.16613 | 132.77719 | 40174 ft | 465 kts | 294° |
| 2026-04-27 15:37 | -23.13179 | 132.71757 | 40175 ft | 465 kts | 295° |
| 2026-04-27 15:37 | -23.09743 | 132.65805 | 40174 ft | 465 kts | 294° |
| 2026-04-27 15:38 | -23.06315 | 132.59850 | 40174 ft | 466 kts | 294° |
| 2026-04-27 15:38 | -23.02877 | 132.53884 | 40174 ft | 466 kts | 294° |
| 2026-04-27 15:39 | -22.99424 | 132.47931 | 40174 ft | 465 kts | 294° |
| 2026-04-27 15:39 | -22.95999 | 132.42025 | 40173 ft | 464 kts | 294° |
| 2026-04-27 15:40 | -22.92550 | 132.36093 | 40174 ft | 464 kts | 294° |
| 2026-04-27 15:40 | -22.89103 | 132.30155 | 40174 ft | 464 kts | 294° |
| 2026-04-27 15:41 | -22.85683 | 132.24260 | 40174 ft | 464 kts | 294° |
| 2026-04-27 15:41 | -22.82240 | 132.18335 | 40166 ft | 463 kts | 294° |
| 2026-04-27 15:42 | -22.78797 | 132.12420 | 40164 ft | 464 kts | 294° |
| 2026-04-27 15:42 | -22.75339 | 132.06491 | 40164 ft | 464 kts | 294° |
| 2026-04-27 15:43 | -22.71911 | 132.00620 | 40165 ft | 464 kts | 294° |
| 2026-04-27 15:43 | -22.68464 | 131.94723 | 40165 ft | 463 kts | 295° |
| 2026-04-27 15:44 | -22.65034 | 131.88862 | 40165 ft | 462 kts | 295° |
| 2026-04-27 15:44 | -22.61591 | 131.82983 | 40165 ft | 462 kts | 295° |
| 2026-04-27 15:45 | -22.58146 | 131.77107 | 40165 ft | 462 kts | 295° |
| 2026-04-27 15:45 | -22.54688 | 131.71216 | 40165 ft | 462 kts | 295° |
| 2026-04-27 15:46 | -22.51235 | 131.65340 | 40156 ft | 462 kts | 295° |
| 2026-04-27 15:46 | -22.47806 | 131.59512 | 40156 ft | 462 kts | 295° |
| 2026-04-27 15:47 | -22.44345 | 131.53637 | 40146 ft | 462 kts | 295° |
| 2026-04-27 15:47 | -22.40887 | 131.47773 | 40147 ft | 462 kts | 295° |
| 2026-04-27 15:48 | -22.37453 | 131.41957 | 40146 ft | 461 kts | 295° |
| 2026-04-27 15:49 | -22.32266 | 131.33182 | 40145 ft | 461 kts | 295° |
| 2026-04-27 15:49 | -22.28800 | 131.27326 | 40145 ft | 462 kts | 295° |
| 2026-04-27 15:50 | -22.25356 | 131.21514 | 40138 ft | 462 kts | 295° |
| 2026-04-27 15:50 | -22.21887 | 131.15665 | 40137 ft | 462 kts | 295° |
| 2026-04-27 15:51 | -22.18415 | 131.09821 | 40137 ft | 462 kts | 295° |
| 2026-04-27 15:51 | -22.14963 | 131.04014 | 40137 ft | 461 kts | 295° |
| 2026-04-27 15:52 | -22.11492 | 130.98184 | 40138 ft | 461 kts | 295° |
| 2026-04-27 15:52 | -22.08019 | 130.92355 | 40134 ft | 461 kts | 295° |
| 2026-04-27 15:53 | -22.04566 | 130.86566 | 40131 ft | 462 kts | 295° |
| 2026-04-27 15:53 | -22.01088 | 130.80741 | 40129 ft | 462 kts | 296° |
| 2026-04-27 15:54 | -21.97612 | 130.74927 | 40126 ft | 461 kts | 296° |
| 2026-04-27 15:54 | -21.94132 | 130.69112 | 40127 ft | 461 kts | 296° |
| 2026-04-27 15:55 | -21.90650 | 130.63301 | 40118 ft | 462 kts | 296° |
| 2026-04-27 15:55 | -21.87202 | 130.57552 | 40119 ft | 462 kts | 296° |
| 2026-04-27 15:56 | -21.83682 | 130.51691 | 40119 ft | 462 kts | 296° |
| 2026-04-27 15:56 | -21.80216 | 130.45925 | 40118 ft | 461 kts | 296° |
| 2026-04-27 15:57 | -21.76731 | 130.40135 | 40119 ft | 461 kts | 296° |
| 2026-04-27 15:57 | -21.73242 | 130.34345 | 40110 ft | 461 kts | 296° |
| 2026-04-27 15:58 | -21.69754 | 130.28560 | 40110 ft | 461 kts | 296° |
| 2026-04-27 15:58 | -21.66262 | 130.22777 | 40111 ft | 461 kts | 296° |
| 2026-04-27 15:59 | -21.62768 | 130.16996 | 40110 ft | 461 kts | 296° |
| 2026-04-27 15:59 | -21.59267 | 130.11209 | 40109 ft | 461 kts | 296° |
| 2026-04-27 16:00 | -21.55769 | 130.05434 | 40104 ft | 461 kts | 296° |
| 2026-04-27 16:00 | -21.52272 | 129.99666 | 40100 ft | 461 kts | 296° |
| 2026-04-27 16:01 | -21.48764 | 129.93886 | 40103 ft | 461 kts | 296° |
| 2026-04-27 16:01 | -21.45860 | 129.89106 | 40100 ft | 460 kts | 296° |
| 2026-04-27 16:02 | -21.42369 | 129.83365 | 40100 ft | 460 kts | 296° |
| 2026-04-27 16:02 | -21.38304 | 129.76686 | 40101 ft | 460 kts | 296° |
| 2026-04-27 16:03 | -21.35370 | 129.71871 | 40091 ft | 460 kts | 296° |
| 2026-04-27 16:03 | -21.31864 | 129.66124 | 40091 ft | 460 kts | 296° |
| 2026-04-27 16:04 | -21.28354 | 129.60376 | 40091 ft | 460 kts | 296° |
| 2026-04-27 16:04 | -21.24868 | 129.54674 | 40091 ft | 460 kts | 296° |
| 2026-04-27 16:05 | -21.21370 | 129.48956 | 40092 ft | 460 kts | 296° |
| 2026-04-27 16:05 | -21.17859 | 129.43223 | 40086 ft | 459 kts | 297° |
| 2026-04-27 16:06 | -21.14354 | 129.37508 | 40082 ft | 459 kts | 297° |
| 2026-04-27 16:06 | -21.10849 | 129.31797 | 40082 ft | 459 kts | 297° |
| 2026-04-27 16:07 | -21.07341 | 129.26087 | 40082 ft | 459 kts | 297° |
| 2026-04-27 16:07 | -21.03819 | 129.20359 | 40082 ft | 459 kts | 297° |
| 2026-04-27 16:08 | -21.00326 | 129.14686 | 40082 ft | 459 kts | 297° |
| 2026-04-27 16:08 | -20.96807 | 129.08976 | 40082 ft | 459 kts | 297° |
| 2026-04-27 16:09 | -20.93293 | 129.03279 | 40078 ft | 459 kts | 297° |
| 2026-04-27 16:09 | -20.88034 | 128.94765 | 40076 ft | 458 kts | 297° |
| 2026-04-27 16:10 | -20.80996 | 128.83389 | 40078 ft | 458 kts | 297° |
| 2026-04-27 16:11 | -20.75722 | 128.74881 | 40078 ft | 458 kts | 297° |
| 2026-04-27 16:12 | -20.70462 | 128.66406 | 40055 ft | 458 kts | 297° |
| 2026-04-27 16:13 | -20.65167 | 128.57888 | 40037 ft | 458 kts | 297° |
| 2026-04-27 16:13 | -20.59891 | 128.49416 | 40017 ft | 458 kts | 297° |
| 2026-04-27 16:14 | -20.52837 | 128.38104 | 40008 ft | 457 kts | 297° |
| 2026-04-27 16:15 | -20.45800 | 128.26842 | 40008 ft | 457 kts | 298° |
| 2026-04-27 16:16 | -20.38730 | 128.15549 | 40008 ft | 457 kts | 298° |
| 2026-04-27 16:17 | -20.31674 | 128.04301 | 40007 ft | 457 kts | 298° |
| 2026-04-27 16:18 | -20.24586 | 127.93025 | 40000 ft | 457 kts | 298° |
| 2026-04-27 16:19 | -20.21064 | 127.87428 | 39998 ft | 457 kts | 298° |
| 2026-04-27 16:20 | -20.13970 | 127.76178 | 40000 ft | 457 kts | 298° |
| 2026-04-27 16:21 | -20.08668 | 127.67782 | 39999 ft | 457 kts | 298° |
| 2026-04-27 16:22 | -20.01554 | 127.56531 | 39992 ft | 457 kts | 298° |
| 2026-04-27 16:22 | -19.96255 | 127.48163 | 39991 ft | 457 kts | 298° |
| 2026-04-27 16:23 | -19.90915 | 127.39743 | 39990 ft | 457 kts | 298° |
| 2026-04-27 16:24 | -19.87361 | 127.34148 | 39990 ft | 457 kts | 298° |
| 2026-04-27 16:25 | -19.80253 | 127.22972 | 39989 ft | 457 kts | 299° |
| 2026-04-27 16:26 | -19.73126 | 127.11793 | 39992 ft | 457 kts | 299° |
| 2026-04-27 16:27 | -19.66009 | 127.00644 | 39972 ft | 457 kts | 299° |
| 2026-04-27 16:28 | -19.57074 | 126.86676 | 39981 ft | 457 kts | 299° |
| 2026-04-27 16:29 | -19.48154 | 126.72769 | 39975 ft | 457 kts | 299° |
| 2026-04-27 16:30 | -19.41020 | 126.61671 | 39983 ft | 456 kts | 299° |
| 2026-04-27 16:31 | -19.32054 | 126.47774 | 39977 ft | 457 kts | 300° |
| 2026-04-27 16:32 | -19.26656 | 126.39427 | 39969 ft | 458 kts | 300° |
| 2026-04-27 16:33 | -19.21283 | 126.31122 | 39963 ft | 456 kts | 300° |
| 2026-04-27 16:33 | -19.17692 | 126.25578 | 39964 ft | 457 kts | 300° |
| 2026-04-27 16:34 | -19.14091 | 126.20026 | 39963 ft | 457 kts | 300° |
| 2026-04-27 16:34 | -19.10515 | 126.14519 | 39976 ft | 457 kts | 300° |
| 2026-04-27 16:35 | -19.06909 | 126.08967 | 39973 ft | 458 kts | 300° |
| 2026-04-27 16:36 | -19.01499 | 126.00645 | 39961 ft | 458 kts | 300° |
| 2026-04-27 16:36 | -18.97883 | 125.95093 | 39964 ft | 458 kts | 300° |
| 2026-04-27 16:37 | -18.94276 | 125.89558 | 39963 ft | 457 kts | 300° |
| 2026-04-27 16:37 | -18.90685 | 125.84051 | 39962 ft | 457 kts | 300° |
| 2026-04-27 16:38 | -18.87072 | 125.78518 | 39961 ft | 458 kts | 300° |
| 2026-04-27 16:38 | -18.83452 | 125.72981 | 39960 ft | 458 kts | 301° |
| 2026-04-27 16:39 | -18.79827 | 125.67442 | 39961 ft | 458 kts | 301° |
| 2026-04-27 16:39 | -18.76227 | 125.61941 | 39966 ft | 458 kts | 301° |
| 2026-04-27 16:40 | -18.72590 | 125.56392 | 39958 ft | 459 kts | 301° |
| 2026-04-27 16:40 | -18.68979 | 125.50887 | 39950 ft | 458 kts | 301° |
| 2026-04-27 16:41 | -18.65350 | 125.45356 | 39956 ft | 458 kts | 301° |
| 2026-04-27 16:41 | -18.61720 | 125.39828 | 39955 ft | 458 kts | 301° |
| 2026-04-27 16:42 | -18.58084 | 125.34298 | 39950 ft | 458 kts | 301° |
| 2026-04-27 16:42 | -18.54467 | 125.28802 | 39952 ft | 459 kts | 301° |
| 2026-04-27 16:43 | -18.50830 | 125.23277 | 39956 ft | 458 kts | 301° |
| 2026-04-27 16:43 | -18.47190 | 125.17754 | 39954 ft | 458 kts | 301° |
| 2026-04-27 16:44 | -18.43571 | 125.12272 | 39954 ft | 458 kts | 301° |
| 2026-04-27 16:44 | -18.39930 | 125.06759 | 39953 ft | 458 kts | 301° |
| 2026-04-27 16:45 | -18.36283 | 125.01240 | 39952 ft | 459 kts | 301° |
| 2026-04-27 16:45 | -18.32631 | 124.95723 | 39943 ft | 458 kts | 301° |
| 2026-04-27 16:46 | -18.28998 | 124.90236 | 39944 ft | 458 kts | 301° |
| 2026-04-27 16:46 | -18.25348 | 124.84725 | 39942 ft | 458 kts | 301° |
| 2026-04-27 16:47 | -18.21704 | 124.79229 | 39942 ft | 458 kts | 301° |
| 2026-04-27 16:47 | -18.18080 | 124.73768 | 39945 ft | 458 kts | 301° |
| 2026-04-27 16:48 | -18.14427 | 124.68271 | 39943 ft | 458 kts | 301° |
| 2026-04-27 16:48 | -18.10768 | 124.62768 | 39943 ft | 458 kts | 301° |
| 2026-04-27 16:49 | -18.05303 | 124.54553 | 39945 ft | 458 kts | 301° |
| 2026-04-27 16:49 | -18.01639 | 124.49053 | 39942 ft | 458 kts | 302° |
| 2026-04-27 16:50 | -17.98004 | 124.43602 | 39942 ft | 458 kts | 302° |
| 2026-04-27 16:50 | -17.94337 | 124.38106 | 39944 ft | 459 kts | 302° |
| 2026-04-27 16:51 | -17.90669 | 124.32616 | 39942 ft | 459 kts | 302° |
| 2026-04-27 16:51 | -17.87614 | 124.28046 | 39940 ft | 459 kts | 302° |
| 2026-04-27 16:52 | -17.83938 | 124.22551 | 39940 ft | 459 kts | 302° |
| 2026-04-27 16:52 | -17.80279 | 124.17088 | 39943 ft | 459 kts | 302° |
| 2026-04-27 16:53 | -17.76602 | 124.11598 | 39944 ft | 459 kts | 302° |
| 2026-04-27 16:53 | -17.72922 | 124.06113 | 39942 ft | 459 kts | 302° |
| 2026-04-27 16:54 | -17.69260 | 124.00655 | 39942 ft | 459 kts | 302° |
| 2026-04-27 16:54 | -17.65573 | 123.95165 | 39940 ft | 459 kts | 302° |
| 2026-04-27 16:55 | -17.61891 | 123.89687 | 39941 ft | 460 kts | 302° |
| 2026-04-27 16:55 | -17.57966 | 123.84372 | 39937 ft | 463 kts | 310° |
| 2026-04-27 16:56 | -17.53504 | 123.79550 | 39933 ft | 464 kts | 311° |
| 2026-04-27 16:56 | -17.48911 | 123.74777 | 39933 ft | 465 kts | 312° |
| 2026-04-27 16:57 | -17.44305 | 123.70018 | 39943 ft | 465 kts | 312° |
| 2026-04-27 16:57 | -17.39709 | 123.65255 | 39943 ft | 465 kts | 311° |
| 2026-04-27 16:58 | -17.35117 | 123.60484 | 39942 ft | 465 kts | 311° |
| 2026-04-27 16:58 | -17.30519 | 123.55708 | 39943 ft | 465 kts | 311° |
| 2026-04-27 16:59 | -17.25923 | 123.50940 | 39944 ft | 466 kts | 311° |
| 2026-04-27 16:59 | -17.21339 | 123.46185 | 39942 ft | 467 kts | 311° |
| 2026-04-27 17:00 | -17.14412 | 123.39010 | 39943 ft | 467 kts | 312° |
| 2026-04-27 17:01 | -17.09783 | 123.34219 | 39944 ft | 467 kts | 312° |
| 2026-04-27 17:01 | -17.05161 | 123.29440 | 39942 ft | 467 kts | 312° |
| 2026-04-27 17:02 | -17.00572 | 123.24699 | 39943 ft | 467 kts | 312° |
| 2026-04-27 17:02 | -16.95935 | 123.19914 | 39944 ft | 468 kts | 312° |
| 2026-04-27 17:03 | -16.91323 | 123.15154 | 39943 ft | 468 kts | 312° |